Map

Track Data

SID SEASON NUMBER BASIN SUBBASIN NAME ISO_TIME NATURE LAT LON WMO_WIND WMO_PRES WMO_AGENCY TRACK_TYPE DIST2LAND LANDFALL IFLAG USA_AGENCY USA_ATCF_ID USA_LAT USA_LON USA_RECORD USA_STATUS USA_WIND USA_PRES USA_SSHS USA_R34_NE USA_R34_SE USA_R34_SW USA_R34_NW USA_R50_NE USA_R50_SE USA_R50_SW USA_R50_NW USA_R64_NE USA_R64_SE USA_R64_SW USA_R64_NW USA_POCI USA_ROCI USA_RMW USA_EYE TOKYO_LAT TOKYO_LON TOKYO_GRADE TOKYO_WIND TOKYO_PRES TOKYO_R50_DIR TOKYO_R50_LONG TOKYO_R50_SHORT TOKYO_R30_DIR TOKYO_R30_LONG TOKYO_R30_SHORT TOKYO_LAND CMA_LAT CMA_LON CMA_CAT CMA_WIND CMA_PRES HKO_LAT HKO_LON HKO_CAT HKO_WIND HKO_PRES NEWDELHI_LAT NEWDELHI_LON NEWDELHI_GRADE NEWDELHI_WIND NEWDELHI_PRES NEWDELHI_CI NEWDELHI_DP NEWDELHI_POCI REUNION_LAT REUNION_LON REUNION_TYPE REUNION_WIND REUNION_PRES REUNION_TNUM REUNION_CI REUNION_RMW REUNION_R34_NE REUNION_R34_SE REUNION_R34_SW REUNION_R34_NW REUNION_R50_NE REUNION_R50_SE REUNION_R50_SW REUNION_R50_NW REUNION_R64_NE REUNION_R64_SE REUNION_R64_SW REUNION_R64_NW BOM_LAT BOM_LON BOM_TYPE BOM_WIND BOM_PRES BOM_TNUM BOM_CI BOM_RMW BOM_R34_NE BOM_R34_SE BOM_R34_SW BOM_R34_NW BOM_R50_NE BOM_R50_SE BOM_R50_SW BOM_R50_NW BOM_R64_NE BOM_R64_SE BOM_R64_SW BOM_R64_NW BOM_ROCI BOM_POCI BOM_EYE BOM_POS_METHOD BOM_PRES_METHOD NADI_LAT NADI_LON NADI_CAT NADI_WIND NADI_PRES WELLINGTON_LAT WELLINGTON_LON WELLINGTON_WIND WELLINGTON_PRES DS824_LAT DS824_LON DS824_STAGE DS824_WIND DS824_PRES TD9636_LAT TD9636_LON TD9636_STAGE TD9636_WIND TD9636_PRES TD9635_LAT TD9635_LON TD9635_WIND TD9635_PRES TD9635_ROCI NEUMANN_LAT NEUMANN_LON NEUMANN_CLASS NEUMANN_WIND NEUMANN_PRES MLC_LAT MLC_LON MLC_CLASS MLC_WIND MLC_PRES USA_GUST BOM_GUST BOM_GUST_PER REUNION_GUST REUNION_GUST_PER USA_SEAHGT USA_SEARAD_NE USA_SEARAD_SE USA_SEARAD_SW USA_SEARAD_NW STORM_SPEED STORM_DIR
1990229N11249 1990 68 EP MM NOT_NAMED 1990-08-16 12:00:00 TS 10.6000 -111.500 20 hurdat_epa main 1201 1201 O_____________ hurdat_epa EP121990 10.6000 -111.500 TD 20 -1 9 281
1990229N11249 1990 68 EP MM NOT_NAMED 1990-08-16 15:00:00 TS 10.6875 -111.960 main 1225 1225 P_____________ EP121990 10.6875 -111.960 TD 22 -1 10 281
1990229N11249 1990 68 EP MM NOT_NAMED 1990-08-16 18:00:00 TS 10.8000 -112.500 25 hurdat_epa main 1251 1251 O_____________ hurdat_epa EP121990 10.8000 -112.500 TD 25 -1 12 282
1990229N11249 1990 68 EP MM NOT_NAMED 1990-08-16 21:00:00 TS 10.9500 -113.170 main 1286 1286 P_____________ EP121990 10.9500 -113.170 TD 25 -1 14 282
1990229N11249 1990 68 EP MM NOT_NAMED 1990-08-17 00:00:00 TS 11.1000 -113.900 25 hurdat_epa main 1331 1331 O_____________ hurdat_epa EP121990 11.1000 -113.900 TD 25 -1 15 281
1990229N11249 1990 68 EP MM NOT_NAMED 1990-08-17 03:00:00 TS 11.2300 -114.622 main 1377 1377 P_____________ EP121990 11.2300 -114.622 TD 25 -1 14 278
1990229N11249 1990 68 EP MM NOT_NAMED 1990-08-17 06:00:00 TS 11.3000 -115.300 25 hurdat_epa main 1414 1414 O_____________ hurdat_epa EP121990 11.3000 -115.300 TD 25 -1 12 272
1990229N11249 1990 68 EP MM NOT_NAMED 1990-08-17 09:00:00 TS 11.2723 -115.880 main 1440 1440 P_____________ EP121990 11.2723 -115.880 TD 25 -1 11 265
1990229N11249 1990 68 EP MM NOT_NAMED 1990-08-17 12:00:00 TS 11.2000 -116.400 25 hurdat_epa main 1474 1474 O_____________ hurdat_epa EP121990 11.2000 -116.400 TD 25 -1 10 263
1990229N11249 1990 68 EP MM NOT_NAMED 1990-08-17 15:00:00 TS 11.1423 -116.893 main 1509 1509 P_____________ EP121990 11.1423 -116.893 TD 25 -1 10 264
1990229N11249 1990 68 EP MM NOT_NAMED 1990-08-17 18:00:00 TS 11.1000 -117.400 25 hurdat_epa main 1536 1536 O_____________ hurdat_epa EP121990 11.1000 -117.400 TD 25 -1 11 267
1990229N11249 1990 68 EP MM NOT_NAMED 1990-08-17 21:00:00 TS 11.0850 -117.985 main 1569 1569 P_____________ EP121990 11.0850 -117.985 TD 27 -1 12 270
1990229N11249 1990 68 EP MM NOT_NAMED 1990-08-18 00:00:00 TS 11.1000 -118.600 30 hurdat_epa main 1605 1605 O_____________ hurdat_epa EP121990 11.1000 -118.600 TD 30 -1 12 272
1990229N11249 1990 68 EP MM NOT_NAMED 1990-08-18 03:00:00 TS 11.1273 -119.185 main 1642 1642 P_____________ EP121990 11.1273 -119.185 TD 30 -1 12 275
1990229N11249 1990 68 EP MM NOT_NAMED 1990-08-18 06:00:00 TS 11.2000 -119.800 30 hurdat_epa main 1671 1671 O_____________ hurdat_epa EP121990 11.2000 -119.800 TD 30 -1 13 279
1990229N11249 1990 68 EP MM NOT_NAMED 1990-08-18 09:00:00 TS 11.3275 -120.500 main 1710 1708 P_____________ EP121990 11.3275 -120.500 TD 30 -1 14 282
1990229N11249 1990 68 EP MM NOT_NAMED 1990-08-18 12:00:00 TS 11.5000 -121.200 30 hurdat_epa main 1742 1742 O_____________ hurdat_epa EP121990 11.5000 -121.200 TD 30 -1 13 286
1990229N11249 1990 68 EP MM NOT_NAMED 1990-08-18 15:00:00 TS 11.6923 -121.815 main 1770 1770 P_____________ EP121990 11.6923 -121.815 TD 30 -1 12 289
1990229N11249 1990 68 EP MM NOT_NAMED 1990-08-18 18:00:00 TS 11.9000 -122.400 30 hurdat_epa main 1796 1796 O_____________ hurdat_epa EP121990 11.9000 -122.400 TD 30 -1 12 289
1990229N11249 1990 68 EP MM NOT_NAMED 1990-08-18 21:00:00 TS 12.0999 -123.008 main 1817 1817 P_____________ EP121990 12.0999 -123.008 TD 30 -1 12 289
1990229N11249 1990 68 EP MM NOT_NAMED 1990-08-19 00:00:00 TS 12.3000 -123.600 30 hurdat_epa main 1840 1840 O_____________ hurdat_epa EP121990 12.3000 -123.600 TD 30 -1 12 289
1990229N11249 1990 68 EP MM NOT_NAMED 1990-08-19 03:00:00 TS 12.4924 -124.173 main 1865 1865 P_____________ EP121990 12.4924 -124.173 TD 30 -1 11 290
1990229N11249 1990 68 EP MM NOT_NAMED 1990-08-19 06:00:00 TS 12.7000 -124.700 30 hurdat_epa main 1885 1884 O_____________ hurdat_epa EP121990 12.7000 -124.700 TD 30 -1 11 294
1990229N11249 1990 68 EP MM NOT_NAMED 1990-08-19 09:00:00 TS 12.9275 -125.195 main 1906 1898 P_____________ EP121990 12.9275 -125.195 TD 30 -1 10 300
1990229N11249 1990 68 EP MM NOT_NAMED 1990-08-19 12:00:00 TS 13.2000 -125.600 30 hurdat_epa main 1912 1904 O_____________ hurdat_epa EP121990 13.2000 -125.600 TD 30 -1 9 312
1990229N11249 1990 68 EP MM NOT_NAMED 1990-08-19 15:00:00 TS 13.5325 -125.885 main 1912 1897 P_____________ EP121990 13.5325 -125.885 TD 30 -1 9 325
1990229N11249 1990 68 EP MM NOT_NAMED 1990-08-19 18:00:00 TS 13.9000 -126.100 30 hurdat_epa main 1898 O_____________ hurdat_epa EP121990 13.9000 -126.100 TD 30 -1 9 330

About IBTrACS Database

This database is a web-friendly format of International Best Track Archive for Climate Stewardship (IBTrACS), a global best track data archive curated by NOAA dating back to 1842.

Updated: 2021-10-21